sensor_id;sensor_type;location;lat;lon;timestamp;pressure;altitude;pressure_sealevel;temperature;humidity
9415;BME280;4746;35.664;139.738;2022-07-29T00:00:02;100519.56;;;34.63;49.00
9415;BME280;4746;35.664;139.738;2022-07-29T00:02:31;100519.72;;;34.62;48.97
9415;BME280;4746;35.664;139.738;2022-07-29T00:04:59;100516.81;;;34.64;49.25
9415;BME280;4746;35.664;139.738;2022-07-29T00:07:27;100515.41;;;34.70;48.62
9415;BME280;4746;35.664;139.738;2022-07-29T00:09:55;100516.03;;;34.83;48.85
9415;BME280;4746;35.664;139.738;2022-07-29T00:12:24;100509.34;;;34.88;48.42
9415;BME280;4746;35.664;139.738;2022-07-29T00:14:54;100510.94;;;35.00;48.80
9415;BME280;4746;35.664;139.738;2022-07-29T00:17:23;100498.75;;;35.17;47.95
9415;BME280;4746;35.664;139.738;2022-07-29T00:19:53;100507.50;;;35.28;47.63
9415;BME280;4746;35.664;139.738;2022-07-29T00:22:21;100513.09;;;35.34;47.25
9415;BME280;4746;35.664;139.738;2022-07-29T00:24:49;100500.09;;;35.41;46.56
9415;BME280;4746;35.664;139.738;2022-07-29T00:27:18;100505.94;;;35.44;46.85
9415;BME280;4746;35.664;139.738;2022-07-29T00:29:46;100503.44;;;35.43;47.14
9415;BME280;4746;35.664;139.738;2022-07-29T00:32:13;100499.91;;;35.33;46.76
9415;BME280;4746;35.664;139.738;2022-07-29T00:34:41;100508.63;;;35.35;46.76
9415;BME280;4746;35.664;139.738;2022-07-29T00:37:26;100497.28;;;35.42;47.06
9415;BME280;4746;35.664;139.738;2022-07-29T00:39:54;100483.41;;;35.48;46.47
9415;BME280;4746;35.664;139.738;2022-07-29T00:42:22;100480.31;;;35.62;45.91
9415;BME280;4746;35.664;139.738;2022-07-29T00:44:49;100499.53;;;35.75;46.26
9415;BME280;4746;35.664;139.738;2022-07-29T00:47:17;100488.72;;;35.77;46.17
9415;BME280;4746;35.664;139.738;2022-07-29T00:49:45;100483.94;;;35.71;46.20
9415;BME280;4746;35.664;139.738;2022-07-29T00:52:13;100482.00;;;35.73;45.93
9415;BME280;4746;35.664;139.738;2022-07-29T00:54:41;100475.25;;;35.78;46.43
9415;BME280;4746;35.664;139.738;2022-07-29T00:57:08;100477.22;;;35.86;45.81
9415;BME280;4746;35.664;139.738;2022-07-29T00:59:36;100491.94;;;35.90;45.87
9415;BME280;4746;35.664;139.738;2022-07-29T01:02:04;100490.97;;;35.91;45.49
9415;BME280;4746;35.664;139.738;2022-07-29T01:04:32;100486.38;;;35.93;45.50
9415;BME280;4746;35.664;139.738;2022-07-29T01:07:04;100479.59;;;35.89;45.75
9415;BME280;4746;35.664;139.738;2022-07-29T01:09:34;100480.28;;;35.91;45.73
9415;BME280;4746;35.664;139.738;2022-07-29T01:12:04;100492.69;;;36.01;45.40
9415;BME280;4746;35.664;139.738;2022-07-29T01:14:32;100479.19;;;36.03;45.44
9415;BME280;4746;35.664;139.738;2022-07-29T01:26:59;100457.50;;;36.24;45.12
9415;BME280;4746;35.664;139.738;2022-07-29T01:29:49;100452.72;;;36.18;44.83
9415;BME280;4746;35.664;139.738;2022-07-29T01:32:26;100462.56;;;36.18;45.03
9415;BME280;4746;35.664;139.738;2022-07-29T01:35:28;100454.13;;;36.22;44.09
9415;BME280;4746;35.664;139.738;2022-07-29T01:38:21;100446.88;;;36.06;44.67
9415;BME280;4746;35.664;139.738;2022-07-29T01:41:05;100448.44;;;35.99;44.57
9415;BME280;4746;35.664;139.738;2022-07-29T01:43:53;100429.47;;;36.02;44.75
9415;BME280;4746;35.664;139.738;2022-07-29T01:46:38;100438.41;;;36.10;44.46
9415;BME280;4746;35.664;139.738;2022-07-29T01:49:20;100440.41;;;36.08;44.66
9415;BME280;4746;35.664;139.738;2022-07-29T01:51:59;100425.22;;;36.08;44.28
9415;BME280;4746;35.664;139.738;2022-07-29T01:54:41;100431.94;;;36.12;44.68
9415;BME280;4746;35.664;139.738;2022-07-29T01:57:14;100421.56;;;36.09;44.61
9415;BME280;4746;35.664;139.738;2022-07-29T01:59:46;100426.59;;;36.12;43.86
9415;BME280;4746;35.664;139.738;2022-07-29T02:02:17;100417.03;;;36.19;44.04
9415;BME280;4746;35.664;139.738;2022-07-29T02:04:47;100408.59;;;36.24;43.86
9415;BME280;4746;35.664;139.738;2022-07-29T02:07:22;100397.31;;;36.39;43.98
9415;BME280;4746;35.664;139.738;2022-07-29T02:09:53;100408.19;;;36.55;43.88
9415;BME280;4746;35.664;139.738;2022-07-29T02:12:22;100387.59;;;36.65;43.62
9415;BME280;4746;35.664;139.738;2022-07-29T02:14:53;100376.25;;;36.80;43.81
9415;BME280;4746;35.664;139.738;2022-07-29T02:17:27;100384.78;;;36.93;43.77
9415;BME280;4746;35.664;139.738;2022-07-29T02:20:02;100390.22;;;37.01;43.94
9415;BME280;4746;35.664;139.738;2022-07-29T02:22:35;100388.75;;;37.07;43.79
9415;BME280;4746;35.664;139.738;2022-07-29T02:25:06;100384.50;;;37.14;43.75
9415;BME280;4746;35.664;139.738;2022-07-29T02:27:37;100394.25;;;37.23;43.79
9415;BME280;4746;35.664;139.738;2022-07-29T02:30:08;100387.22;;;37.31;43.22
9415;BME280;4746;35.664;139.738;2022-07-29T02:32:40;100377.72;;;37.37;43.74
9415;BME280;4746;35.664;139.738;2022-07-29T02:35:11;100380.91;;;37.40;43.28
9415;BME280;4746;35.664;139.738;2022-07-29T02:37:43;100368.78;;;37.46;43.77
9415;BME280;4746;35.664;139.738;2022-07-29T02:40:15;100368.53;;;37.56;43.82
9415;BME280;4746;35.664;139.738;2022-07-29T02:42:46;100380.41;;;37.62;43.22
9415;BME280;4746;35.664;139.738;2022-07-29T02:45:14;100376.53;;;37.56;42.40
9415;BME280;4746;35.664;139.738;2022-07-29T02:47:47;100363.84;;;37.58;42.71
9415;BME280;4746;35.664;139.738;2022-07-29T02:50:29;100362.69;;;37.61;43.10
9415;BME280;4746;35.664;139.738;2022-07-29T02:53:22;100368.56;;;37.64;42.89
9415;BME280;4746;35.664;139.738;2022-07-29T02:55:59;100346.41;;;37.54;43.20
9415;BME280;4746;35.664;139.738;2022-07-29T02:58:38;100357.03;;;37.64;43.10
9415;BME280;4746;35.664;139.738;2022-07-29T03:01:20;100367.34;;;37.76;42.78
9415;BME280;4746;35.664;139.738;2022-07-29T03:03:51;100360.72;;;37.88;41.99
9415;BME280;4746;35.664;139.738;2022-07-29T03:06:23;100351.47;;;38.08;41.76
9415;BME280;4746;35.664;139.738;2022-07-29T03:08:52;100365.81;;;38.25;41.33
9415;BME280;4746;35.664;139.738;2022-07-29T03:11:22;100346.63;;;38.37;41.19
9415;BME280;4746;35.664;139.738;2022-07-29T03:13:51;100331.06;;;38.48;41.24
9415;BME280;4746;35.664;139.738;2022-07-29T03:16:20;100328.78;;;38.61;40.95
9415;BME280;4746;35.664;139.738;2022-07-29T03:18:52;100320.44;;;38.72;40.24
9415;BME280;4746;35.664;139.738;2022-07-29T03:21:19;100317.59;;;38.82;39.87
9415;BME280;4746;35.664;139.738;2022-07-29T03:23:47;100315.94;;;38.89;40.06
9415;BME280;4746;35.664;139.738;2022-07-29T03:26:14;100325.50;;;38.99;39.75
9415;BME280;4746;35.664;139.738;2022-07-29T03:28:42;100321.81;;;38.92;40.20
9415;BME280;4746;35.664;139.738;2022-07-29T03:31:09;100335.06;;;38.86;40.20
9415;BME280;4746;35.664;139.738;2022-07-29T03:33:37;100312.25;;;38.74;38.69
9415;BME280;4746;35.664;139.738;2022-07-29T03:36:05;100320.94;;;38.76;39.13
9415;BME280;4746;35.664;139.738;2022-07-29T03:38:35;100316.28;;;38.86;39.49
9415;BME280;4746;35.664;139.738;2022-07-29T03:41:11;100318.78;;;38.79;39.17
9415;BME280;4746;35.664;139.738;2022-07-29T03:43:42;100320.59;;;38.71;38.89
9415;BME280;4746;35.664;139.738;2022-07-29T03:46:11;100309.88;;;38.63;39.16
9415;BME280;4746;35.664;139.738;2022-07-29T03:48:48;100302.50;;;38.65;39.13
9415;BME280;4746;35.664;139.738;2022-07-29T03:51:19;100319.25;;;38.75;39.37
9415;BME280;4746;35.664;139.738;2022-07-29T03:53:46;100315.59;;;38.76;38.42
9415;BME280;4746;35.664;139.738;2022-07-29T03:56:17;100310.41;;;38.74;38.68
9415;BME280;4746;35.664;139.738;2022-07-29T03:58:52;100298.16;;;38.72;38.89
9415;BME280;4746;35.664;139.738;2022-07-29T04:01:21;100296.34;;;38.80;38.96
9415;BME280;4746;35.664;139.738;2022-07-29T04:03:49;100290.81;;;38.90;38.63
9415;BME280;4746;35.664;139.738;2022-07-29T04:06:17;100283.44;;;38.99;37.97
9415;BME280;4746;35.664;139.738;2022-07-29T04:08:45;100277.75;;;38.95;38.36
9415;BME280;4746;35.664;139.738;2022-07-29T04:11:13;100275.38;;;38.99;39.10
9415;BME280;4746;35.664;139.738;2022-07-29T04:13:41;100282.63;;;39.15;38.32
9415;BME280;4746;35.664;139.738;2022-07-29T04:16:08;100276.91;;;39.34;38.49
9415;BME280;4746;35.664;139.738;2022-07-29T04:18:36;100254.94;;;39.46;37.75
9415;BME280;4746;35.664;139.738;2022-07-29T04:21:04;100253.19;;;39.69;37.37
9415;BME280;4746;35.664;139.738;2022-07-29T04:23:31;100274.44;;;39.94;37.37
9415;BME280;4746;35.664;139.738;2022-07-29T04:26:00;100265.47;;;40.10;37.09
9415;BME280;4746;35.664;139.738;2022-07-29T04:28:28;100254.03;;;40.16;37.28
9415;BME280;4746;35.664;139.738;2022-07-29T04:30:55;100252.31;;;40.23;37.44
9415;BME280;4746;35.664;139.738;2022-07-29T04:33:23;100246.28;;;40.29;37.82
9415;BME280;4746;35.664;139.738;2022-07-29T04:35:50;100249.41;;;40.40;37.86
9415;BME280;4746;35.664;139.738;2022-07-29T04:38:18;100262.25;;;40.52;37.82
9415;BME280;4746;35.664;139.738;2022-07-29T04:40:45;100255.53;;;40.79;37.79
9415;BME280;4746;35.664;139.738;2022-07-29T04:43:14;100258.66;;;40.90;36.92
9415;BME280;4746;35.664;139.738;2022-07-29T04:45:42;100245.25;;;40.82;37.24
9415;BME280;4746;35.664;139.738;2022-07-29T04:48:10;100243.81;;;40.94;37.44
9415;BME280;4746;35.664;139.738;2022-07-29T04:50:41;100242.63;;;41.19;37.54
9415;BME280;4746;35.664;139.738;2022-07-29T04:53:09;100246.34;;;41.32;37.63
9415;BME280;4746;35.664;139.738;2022-07-29T04:55:36;100235.13;;;41.43;37.02
9415;BME280;4746;35.664;139.738;2022-07-29T04:58:04;100246.19;;;41.48;36.71
9415;BME280;4746;35.664;139.738;2022-07-29T05:00:32;100235.91;;;41.52;36.12
9415;BME280;4746;35.664;139.738;2022-07-29T05:02:59;100241.56;;;41.71;35.97
9415;BME280;4746;35.664;139.738;2022-07-29T05:05:27;100214.53;;;41.94;35.68
9415;BME280;4746;35.664;139.738;2022-07-29T05:07:54;100244.19;;;41.94;35.87
9415;BME280;4746;35.664;139.738;2022-07-29T05:10:23;100243.22;;;41.87;35.31
9415;BME280;4746;35.664;139.738;2022-07-29T05:12:50;100230.88;;;41.78;35.33
9415;BME280;4746;35.664;139.738;2022-07-29T05:15:18;100230.44;;;41.74;35.68
9415;BME280;4746;35.664;139.738;2022-07-29T05:17:46;100209.34;;;41.92;35.70
9415;BME280;4746;35.664;139.738;2022-07-29T05:20:14;100229.75;;;42.01;35.81
9415;BME280;4746;35.664;139.738;2022-07-29T05:22:41;100211.91;;;42.00;35.63
9415;BME280;4746;35.664;139.738;2022-07-29T05:25:09;100196.75;;;42.13;35.15
9415;BME280;4746;35.664;139.738;2022-07-29T05:27:37;100210.56;;;42.25;35.34
9415;BME280;4746;35.664;139.738;2022-07-29T05:30:05;100205.38;;;42.23;34.50
9415;BME280;4746;35.664;139.738;2022-07-29T05:32:33;100208.88;;;42.24;35.08
9415;BME280;4746;35.664;139.738;2022-07-29T05:35:01;100200.59;;;42.25;34.63
9415;BME280;4746;35.664;139.738;2022-07-29T05:37:28;100194.47;;;42.31;34.82
9415;BME280;4746;35.664;139.738;2022-07-29T05:39:56;100198.06;;;42.38;34.79
9415;BME280;4746;35.664;139.738;2022-07-29T05:42:24;100201.81;;;42.58;34.55
9415;BME280;4746;35.664;139.738;2022-07-29T05:44:52;100192.03;;;42.99;34.06
9415;BME280;4746;35.664;139.738;2022-07-29T05:47:20;100195.75;;;43.86;33.19
9415;BME280;4746;35.664;139.738;2022-07-29T05:49:48;100186.81;;;44.52;31.71
9415;BME280;4746;35.664;139.738;2022-07-29T05:52:15;100200.59;;;44.83;31.20
9415;BME280;4746;35.664;139.738;2022-07-29T05:54:43;100194.56;;;45.19;30.83
9415;BME280;4746;35.664;139.738;2022-07-29T05:57:23;100182.94;;;45.82;30.34
9415;BME280;4746;35.664;139.738;2022-07-29T05:59:51;100203.06;;;46.12;29.26
9415;BME280;4746;35.664;139.738;2022-07-29T06:02:19;100208.34;;;46.38;28.56
9415;BME280;4746;35.664;139.738;2022-07-29T06:04:47;100196.13;;;46.59;28.93
9415;BME280;4746;35.664;139.738;2022-07-29T06:07:15;100203.34;;;46.72;28.26
9415;BME280;4746;35.664;139.738;2022-07-29T06:09:43;100194.13;;;46.73;27.68
9415;BME280;4746;35.664;139.738;2022-07-29T06:12:11;100195.72;;;46.56;27.75
9415;BME280;4746;35.664;139.738;2022-07-29T06:14:38;100204.34;;;46.46;27.97
9415;BME280;4746;35.664;139.738;2022-07-29T06:17:07;100191.19;;;46.13;28.43
9415;BME280;4746;35.664;139.738;2022-07-29T06:19:37;100194.88;;;45.62;28.52
9415;BME280;4746;35.664;139.738;2022-07-29T06:22:06;100194.31;;;45.47;28.82
9415;BME280;4746;35.664;139.738;2022-07-29T06:24:33;100185.53;;;46.51;27.67
9415;BME280;4746;35.664;139.738;2022-07-29T06:27:01;100185.38;;;48.27;24.94
9415;BME280;4746;35.664;139.738;2022-07-29T06:29:28;100179.16;;;49.58;23.94
9415;BME280;4746;35.664;139.738;2022-07-29T06:31:56;100184.59;;;51.14;22.21
9415;BME280;4746;35.664;139.738;2022-07-29T06:34:23;100182.13;;;52.40;21.00
9415;BME280;4746;35.664;139.738;2022-07-29T06:36:51;100175.72;;;53.29;19.83
9415;BME280;4746;35.664;139.738;2022-07-29T06:39:19;100170.59;;;54.08;19.40
9415;BME280;4746;35.664;139.738;2022-07-29T06:41:51;100185.53;;;54.87;19.04
9415;BME280;4746;35.664;139.738;2022-07-29T06:44:19;100172.81;;;55.50;18.52
9415;BME280;4746;35.664;139.738;2022-07-29T06:46:46;100167.84;;;56.11;17.76
9415;BME280;4746;35.664;139.738;2022-07-29T06:49:16;100149.34;;;56.54;17.30
9415;BME280;4746;35.664;139.738;2022-07-29T06:51:44;100167.19;;;57.18;16.79
9415;BME280;4746;35.664;139.738;2022-07-29T06:54:12;100164.69;;;57.87;16.87
9415;BME280;4746;35.664;139.738;2022-07-29T06:56:39;100161.56;;;58.48;15.43
9415;BME280;4746;35.664;139.738;2022-07-29T06:59:10;100168.34;;;58.88;15.64
9415;BME280;4746;35.664;139.738;2022-07-29T07:01:41;100177.81;;;59.00;15.69
9415;BME280;4746;35.664;139.738;2022-07-29T07:04:10;100188.19;;;59.08;15.01
9415;BME280;4746;35.664;139.738;2022-07-29T07:06:38;100173.00;;;59.19;14.99
9415;BME280;4746;35.664;139.738;2022-07-29T07:09:09;100169.13;;;59.47;14.93
9415;BME280;4746;35.664;139.738;2022-07-29T07:11:36;100167.50;;;59.73;14.97
9415;BME280;4746;35.664;139.738;2022-07-29T07:14:04;100165.16;;;60.15;14.48
9415;BME280;4746;35.664;139.738;2022-07-29T07:16:33;100159.69;;;60.45;14.78
9415;BME280;4746;35.664;139.738;2022-07-29T07:19:01;100157.41;;;60.47;13.97
9415;BME280;4746;35.664;139.738;2022-07-29T07:21:28;100163.34;;;60.54;14.28
9415;BME280;4746;35.664;139.738;2022-07-29T07:23:56;100157.28;;;60.74;14.32
9415;BME280;4746;35.664;139.738;2022-07-29T07:26:24;100157.41;;;60.69;13.71
9415;BME280;4746;35.664;139.738;2022-07-29T07:28:52;100160.03;;;60.74;13.82
9415;BME280;4746;35.664;139.738;2022-07-29T07:31:19;100161.09;;;60.86;13.61
9415;BME280;4746;35.664;139.738;2022-07-29T07:33:47;100163.72;;;60.61;14.17
9415;BME280;4746;35.664;139.738;2022-07-29T07:36:14;100164.09;;;60.24;14.09
9415;BME280;4746;35.664;139.738;2022-07-29T07:38:42;100161.13;;;59.45;14.53
9415;BME280;4746;35.664;139.738;2022-07-29T07:41:09;100154.47;;;59.06;14.76
9415;BME280;4746;35.664;139.738;2022-07-29T07:43:37;100147.69;;;58.99;14.99
9415;BME280;4746;35.664;139.738;2022-07-29T07:46:05;100145.13;;;59.02;15.11
9415;BME280;4746;35.664;139.738;2022-07-29T07:48:33;100131.50;;;59.19;14.78
9415;BME280;4746;35.664;139.738;2022-07-29T07:51:01;100132.84;;;59.21;14.91
9415;BME280;4746;35.664;139.738;2022-07-29T07:53:29;100128.53;;;59.29;15.08
9415;BME280;4746;35.664;139.738;2022-07-29T07:55:57;100124.44;;;59.40;14.80
9415;BME280;4746;35.664;139.738;2022-07-29T07:58:24;100133.38;;;59.37;15.18
9415;BME280;4746;35.664;139.738;2022-07-29T08:00:53;100134.25;;;59.46;14.72
9415;BME280;4746;35.664;139.738;2022-07-29T08:03:20;100124.25;;;59.23;15.00
9415;BME280;4746;35.664;139.738;2022-07-29T08:05:48;100134.16;;;59.11;15.07
9415;BME280;4746;35.664;139.738;2022-07-29T08:08:18;100125.63;;;58.94;15.19
9415;BME280;4746;35.664;139.738;2022-07-29T08:10:46;100130.34;;;58.93;15.17
9415;BME280;4746;35.664;139.738;2022-07-29T08:13:26;100127.16;;;58.86;15.70
9415;BME280;4746;35.664;139.738;2022-07-29T08:15:55;100141.19;;;58.76;15.18
9415;BME280;4746;35.664;139.738;2022-07-29T08:18:29;100136.59;;;58.53;15.29
9415;BME280;4746;35.664;139.738;2022-07-29T08:20:58;100126.47;;;58.31;15.46
9415;BME280;4746;35.664;139.738;2022-07-29T08:23:25;100133.50;;;58.05;15.70
9415;BME280;4746;35.664;139.738;2022-07-29T08:25:53;100124.19;;;57.82;15.30
9415;BME280;4746;35.664;139.738;2022-07-29T08:28:23;100127.28;;;57.58;15.95
9415;BME280;4746;35.664;139.738;2022-07-29T08:30:51;100130.34;;;57.09;15.96
9415;BME280;4746;35.664;139.738;2022-07-29T08:33:18;100131.63;;;56.27;16.07
9415;BME280;4746;35.664;139.738;2022-07-29T08:35:46;100132.38;;;55.94;16.41
9415;BME280;4746;35.664;139.738;2022-07-29T08:38:13;100144.88;;;55.77;16.99
9415;BME280;4746;35.664;139.738;2022-07-29T08:40:41;100152.81;;;55.83;17.20
9415;BME280;4746;35.664;139.738;2022-07-29T08:43:09;100141.97;;;55.43;16.76
9415;BME280;4746;35.664;139.738;2022-07-29T08:45:48;100138.75;;;55.17;17.10
9415;BME280;4746;35.664;139.738;2022-07-29T08:48:20;100148.13;;;55.01;17.67
9415;BME280;4746;35.664;139.738;2022-07-29T08:50:53;100160.81;;;54.52;17.64
9415;BME280;4746;35.664;139.738;2022-07-29T08:53:25;100168.88;;;53.83;18.59
9415;BME280;4746;35.664;139.738;2022-07-29T08:55:54;100151.13;;;53.44;19.05
9415;BME280;4746;35.664;139.738;2022-07-29T08:58:23;100171.13;;;52.98;19.50
9415;BME280;4746;35.664;139.738;2022-07-29T09:00:56;100170.03;;;52.37;19.77
9415;BME280;4746;35.664;139.738;2022-07-29T09:03:30;100176.66;;;51.71;20.88
9415;BME280;4746;35.664;139.738;2022-07-29T09:06:03;100180.44;;;51.11;21.20
9415;BME280;4746;35.664;139.738;2022-07-29T09:08:32;100184.56;;;49.81;22.84
9415;BME280;4746;35.664;139.738;2022-07-29T09:11:02;100180.25;;;47.89;25.45
9415;BME280;4746;35.664;139.738;2022-07-29T09:13:30;100197.56;;;46.25;27.68
9415;BME280;4746;35.664;139.738;2022-07-29T09:15:57;100186.00;;;44.84;29.15
9415;BME280;4746;35.664;139.738;2022-07-29T09:18:42;100187.06;;;43.91;30.53
9415;BME280;4746;35.664;139.738;2022-07-29T09:21:14;100191.16;;;42.92;32.37
9415;BME280;4746;35.664;139.738;2022-07-29T09:24:13;100208.41;;;41.85;34.01
9415;BME280;4746;35.664;139.738;2022-07-29T09:26:44;100204.41;;;41.01;35.20
9415;BME280;4746;35.664;139.738;2022-07-29T09:29:23;100223.09;;;40.28;36.42
9415;BME280;4746;35.664;139.738;2022-07-29T09:31:54;100221.34;;;39.66;36.88
9415;BME280;4746;35.664;139.738;2022-07-29T09:34:29;100234.34;;;39.07;38.65
9415;BME280;4746;35.664;139.738;2022-07-29T09:36:58;100217.72;;;38.56;39.80
9415;BME280;4746;35.664;139.738;2022-07-29T09:39:40;100222.19;;;38.24;40.25
9415;BME280;4746;35.664;139.738;2022-07-29T09:42:13;100232.84;;;37.74;42.20
9415;BME280;4746;35.664;139.738;2022-07-29T09:44:54;100229.97;;;37.43;42.30
9415;BME280;4746;35.664;139.738;2022-07-29T09:47:21;100241.47;;;37.18;43.21
9415;BME280;4746;35.664;139.738;2022-07-29T09:50:00;100254.34;;;36.97;43.52
9415;BME280;4746;35.664;139.738;2022-07-29T09:52:29;100251.06;;;36.68;44.01
9415;BME280;4746;35.664;139.738;2022-07-29T09:55:08;100240.84;;;36.46;44.90
9415;BME280;4746;35.664;139.738;2022-07-29T09:57:36;100238.88;;;36.21;45.75
9415;BME280;4746;35.664;139.738;2022-07-29T10:00:13;100250.41;;;36.12;46.11
9415;BME280;4746;35.664;139.738;2022-07-29T10:02:44;100266.41;;;35.95;46.93
9415;BME280;4746;35.664;139.738;2022-07-29T10:05:22;100246.38;;;35.82;47.04
9415;BME280;4746;35.664;139.738;2022-07-29T10:07:53;100259.34;;;35.67;47.87
9415;BME280;4746;35.664;139.738;2022-07-29T10:10:41;100267.47;;;35.66;47.80
9415;BME280;4746;35.664;139.738;2022-07-29T10:13:14;100270.63;;;35.52;48.82
9415;BME280;4746;35.664;139.738;2022-07-29T10:15:44;100288.16;;;35.45;48.40
9415;BME280;4746;35.664;139.738;2022-07-29T10:18:15;100318.06;;;35.30;48.27
9415;BME280;4746;35.664;139.738;2022-07-29T10:20:46;100311.19;;;35.08;49.73
9415;BME280;4746;35.664;139.738;2022-07-29T10:23:14;100289.78;;;35.00;49.72
9415;BME280;4746;35.664;139.738;2022-07-29T10:25:42;100318.22;;;35.00;49.76
9415;BME280;4746;35.664;139.738;2022-07-29T10:28:09;100314.53;;;34.91;49.95
9415;BME280;4746;35.664;139.738;2022-07-29T10:30:39;100328.56;;;34.84;50.27
9415;BME280;4746;35.664;139.738;2022-07-29T10:36:23;100314.53;;;34.72;51.01
9415;BME280;4746;35.664;139.738;2022-07-29T10:42:02;100333.47;;;34.69;50.81
9415;BME280;4746;35.664;139.738;2022-07-29T10:44:34;100338.91;;;34.59;51.66
9415;BME280;4746;35.664;139.738;2022-07-29T10:47:02;100337.63;;;34.53;51.79
9415;BME280;4746;35.664;139.738;2022-07-29T10:49:30;100330.88;;;34.49;52.06
9415;BME280;4746;35.664;139.738;2022-07-29T10:52:09;100345.47;;;34.55;51.24
9415;BME280;4746;35.664;139.738;2022-07-29T11:05:16;100339.00;;;34.48;51.34
9415;BME280;4746;35.664;139.738;2022-07-29T11:10:41;100339.63;;;34.31;52.21
9415;BME280;4746;35.664;139.738;2022-07-29T11:13:09;100336.97;;;34.31;51.98
9415;BME280;4746;35.664;139.738;2022-07-29T11:15:56;100331.56;;;34.42;52.10
9415;BME280;4746;35.664;139.738;2022-07-29T11:18:24;100347.59;;;34.31;52.28
9415;BME280;4746;35.664;139.738;2022-07-29T11:20:52;100354.72;;;34.21;53.35
9415;BME280;4746;35.664;139.738;2022-07-29T11:23:30;100344.69;;;34.34;52.32
9415;BME280;4746;35.664;139.738;2022-07-29T11:26:20;100346.81;;;34.40;52.47
9415;BME280;4746;35.664;139.738;2022-07-29T11:29:03;100346.81;;;34.40;52.95
9415;BME280;4746;35.664;139.738;2022-07-29T11:31:46;100346.81;;;34.40;52.98
9415;BME280;4746;35.664;139.738;2022-07-29T11:47:41;100355.44;;;34.23;53.70
9415;BME280;4746;35.664;139.738;2022-07-29T11:50:15;100330.19;;;34.17;53.78
9415;BME280;4746;35.664;139.738;2022-07-29T11:52:48;100350.38;;;34.20;53.79
9415;BME280;4746;35.664;139.738;2022-07-29T11:55:22;100328.84;;;34.23;54.43
9415;BME280;4746;35.664;139.738;2022-07-29T11:58:00;100331.94;;;34.28;53.63
9415;BME280;4746;35.664;139.738;2022-07-29T12:00:36;100349.59;;;34.29;53.48
9415;BME280;4746;35.664;139.738;2022-07-29T12:03:11;100332.63;;;34.30;53.17
9415;BME280;4746;35.664;139.738;2022-07-29T12:05:44;100344.25;;;34.29;52.77
9415;BME280;4746;35.664;139.738;2022-07-29T12:08:19;100342.97;;;34.23;53.17
9415;BME280;4746;35.664;139.738;2022-07-29T12:10:51;100326.66;;;34.07;53.35
9415;BME280;4746;35.664;139.738;2022-07-29T12:13:20;100343.53;;;33.97;53.79
9415;BME280;4746;35.664;139.738;2022-07-29T12:15:56;100322.69;;;34.02;53.98
9415;BME280;4746;35.664;139.738;2022-07-29T12:18:25;100343.03;;;34.03;54.01
9415;BME280;4746;35.664;139.738;2022-07-29T12:21:01;100332.13;;;34.06;53.97
9415;BME280;4746;35.664;139.738;2022-07-29T12:23:31;100335.03;;;34.03;54.31
9415;BME280;4746;35.664;139.738;2022-07-29T12:25:59;100332.38;;;34.03;54.60
9415;BME280;4746;35.664;139.738;2022-07-29T12:28:27;100334.06;;;34.04;54.56
9415;BME280;4746;35.664;139.738;2022-07-29T12:30:57;100344.44;;;34.07;54.87
9415;BME280;4746;35.664;139.738;2022-07-29T12:33:28;100331.28;;;34.05;54.42
9415;BME280;4746;35.664;139.738;2022-07-29T12:36:02;100341.91;;;34.05;54.56
9415;BME280;4746;35.664;139.738;2022-07-29T12:38:30;100344.50;;;33.96;54.77
9415;BME280;4746;35.664;139.738;2022-07-29T12:40:58;100339.41;;;33.84;55.05
9415;BME280;4746;35.664;139.738;2022-07-29T12:43:26;100343.91;;;33.83;54.88
9415;BME280;4746;35.664;139.738;2022-07-29T12:45:56;100328.09;;;33.91;54.69
9415;BME280;4746;35.664;139.738;2022-07-29T12:48:41;100352.47;;;33.96;53.89
9415;BME280;4746;35.664;139.738;2022-07-29T12:51:11;100339.34;;;33.74;54.60
9415;BME280;4746;35.664;139.738;2022-07-29T12:53:41;100343.66;;;33.66;55.21
9415;BME280;4746;35.664;139.738;2022-07-29T12:56:16;100368.81;;;33.62;54.52
9415;BME280;4746;35.664;139.738;2022-07-29T12:58:43;100347.44;;;33.52;55.20
9415;BME280;4746;35.664;139.738;2022-07-29T13:01:14;100346.38;;;33.55;55.21
9415;BME280;4746;35.664;139.738;2022-07-29T13:03:58;100355.63;;;33.60;54.78
9415;BME280;4746;35.664;139.738;2022-07-29T13:06:45;100363.16;;;33.55;54.63
9415;BME280;4746;35.664;139.738;2022-07-29T13:09:19;100360.03;;;33.50;55.02
9415;BME280;4746;35.664;139.738;2022-07-29T13:11:54;100349.38;;;33.50;55.14
9415;BME280;4746;35.664;139.738;2022-07-29T13:14:36;100355.28;;;33.54;54.75
9415;BME280;4746;35.664;139.738;2022-07-29T13:17:22;100354.56;;;33.52;54.71
9415;BME280;4746;35.664;139.738;2022-07-29T13:20:03;100344.06;;;33.50;55.08
9415;BME280;4746;35.664;139.738;2022-07-29T13:22:31;100343.47;;;33.47;54.88
9415;BME280;4746;35.664;139.738;2022-07-29T13:25:01;100339.03;;;33.47;55.09
9415;BME280;4746;35.664;139.738;2022-07-29T13:27:37;100343.25;;;33.50;55.00
9415;BME280;4746;35.664;139.738;2022-07-29T13:30:08;100346.03;;;33.48;55.01
9415;BME280;4746;35.664;139.738;2022-07-29T13:32:37;100345.44;;;33.45;55.22
9415;BME280;4746;35.664;139.738;2022-07-29T13:35:07;100337.59;;;33.43;55.13
9415;BME280;4746;35.664;139.738;2022-07-29T13:37:36;100342.22;;;33.41;55.33
9415;BME280;4746;35.664;139.738;2022-07-29T13:40:09;100332.53;;;33.40;55.33
9415;BME280;4746;35.664;139.738;2022-07-29T13:42:37;100325.81;;;33.36;55.05
9415;BME280;4746;35.664;139.738;2022-07-29T13:45:07;100330.13;;;33.37;55.61
9415;BME280;4746;35.664;139.738;2022-07-29T13:47:35;100336.69;;;33.33;55.44
9415;BME280;4746;35.664;139.738;2022-07-29T13:50:04;100332.59;;;33.29;55.62
9415;BME280;4746;35.664;139.738;2022-07-29T13:52:33;100332.19;;;33.34;55.47